| time (UTC) | temp C | wind direction | speed KPH | gust KPH | rain 1hr cm | rain 24hr cm | rain mn cm | humidity % | barometer mb |
| 20260905205947 | 19 | 241 | 8.0 | 16.1 | 0.00 | 0.00 | 0.30 | 67 | 1023.7 |
| 20260905203907 | 18 | 230 | 4.8 | 11.3 | 0.00 | 0.00 | 0.30 | 68 | 1023.5 |
| 20260905200809 | 18 | 234 | 4.8 | 11.3 | 0.00 | 0.00 | 0.30 | 66 | 1023.4 |
| 20260905192738 | 18 | 229 | 4.8 | 11.3 | 0.00 | 0.00 | 0.30 | 64 | 1022.9 |
| 20260905190718 | 18 | 222 | 3.2 | 4.8 | 0.00 | 0.00 | 0.30 | 61 | 1022.7 |
| 20260905185641 | 18 | 220 | 3.2 | 4.8 | 0.00 | 0.00 | 0.30 | 59 | 1022.6 |
| 20260905184619 | 20 | 217 | 3.2 | 11.3 | 0.00 | 0.00 | 0.30 | 54 | 1022.5 |
| 20260905181521 | 21 | 230 | 4.8 | 12.9 | 0.00 | 0.00 | 0.30 | 50 | 1021.9 |
| 20260905174438 | 22 | 233 | 6.4 | 12.9 | 0.00 | 0.00 | 0.30 | 47 | 1021.5 |
| 20260905173425 | 22 | 227 | 6.4 | 11.3 | 0.00 | 0.00 | 0.30 | 46 | 1021.4 |
| 20260905171411 | 22 | 239 | 6.4 | 12.9 | 0.00 | 0.00 | 0.30 | 46 | 1021.1 |
| 20260905170353 | 22 | 239 | 6.4 | 14.5 | 0.00 | 0.00 | 0.30 | 46 | 1020.7 |
| 20260905165350 | 22 | 257 | 8.0 | 17.7 | 0.00 | 0.00 | 0.30 | 45 | 1020.8 |
| 20260905164313 | 23 | 228 | 9.7 | 17.7 | 0.00 | 0.00 | 0.30 | 44 | 1021.1 |
| 20260905160154 | 24 | 247 | 12.9 | 29.0 | 0.00 | 0.00 | 0.30 | 42 | 1020.6 |
| 20260905153122 | 24 | 226 | 11.3 | 30.6 | 0.00 | 0.00 | 0.30 | 43 | 1020.4 |
| 20260905144022 | 25 | 235 | 14.5 | 25.7 | 0.00 | 0.00 | 0.30 | 41 | 1020.3 |
| 20260905135903 | 25 | 235 | 14.5 | 27.4 | 0.00 | 0.00 | 0.30 | 43 | 1020.3 |
| 20260905123703 | 23 | 246 | 9.7 | 25.7 | 0.00 | 0.00 | 0.30 | 50 | 1020.8 |
| 20260905122654 | 24 | 232 | 9.7 | 27.4 | 0.00 | 0.00 | 0.30 | 49 | 1020.5 |
| 20260905121618 | 23 | 226 | 11.3 | 25.7 | 0.00 | 0.00 | 0.30 | 51 | 1020.8 |
| 20260905115534 | 23 | 228 | 8.0 | 25.7 | 0.00 | 0.00 | 0.30 | 52 | 1020.7 |
| 20260905114514 | 22 | 224 | 6.4 | 22.5 | 0.00 | 0.00 | 0.30 | 56 | 1020.8 |
| 20260905113458 | 21 | 218 | 1.6 | 9.7 | 0.00 | 0.00 | 0.30 | 66 | 1020.9 |
| 20260905110427 | 22 | 242 | 12.9 | 22.5 | 0.00 | 0.00 | 0.30 | 66 | 1021.2 |
| 20260905104411 | 20 | 232 | 11.3 | 24.1 | 0.00 | 0.00 | 0.30 | 73 | 1021.0 |
| 20260905103406 | 20 | 244 | 9.7 | 22.5 | 0.00 | 0.00 | 0.30 | 72 | 1021.1 |
| 20260905101326 | 19 | 235 | 11.3 | 20.9 | 0.00 | 0.00 | 0.30 | 76 | 1021.6 |
| 20260905100250 | 19 | 244 | 12.9 | 25.7 | 0.00 | 0.00 | 0.30 | 77 | 1021.5 |
| 20260905095246 | 18 | 247 | 11.3 | 20.9 | 0.00 | 0.00 | 0.30 | 78 | 1021.5 |
| 20260905093225 | 17 | 241 | 11.3 | 22.5 | 0.00 | 0.00 | 0.30 | 81 | 1021.4 |
| 20260905091202 | 17 | 236 | 9.7 | 20.9 | 0.03 | 0.00 | 0.30 | 84 | 1021.6 |
| 20260905090158 | 16 | 236 | 6.4 | 16.1 | 0.05 | 0.00 | 0.30 | 85 | 1021.6 |
| 20260905083042 | 15 | 245 | 9.7 | 20.9 | 0.08 | 0.00 | 0.30 | 90 | 1021.5 |
| 20260905082039 | 15 | 242 | 14.5 | 24.1 | 0.10 | 0.00 | 0.30 | 90 | 1021.6 |
| 20260905081002 | 15 | 244 | 12.9 | 22.5 | 0.10 | 0.00 | 0.28 | 89 | 1021.6 |
| 20260905074937 | 15 | 242 | 14.5 | 25.7 | 0.08 | 0.00 | 0.25 | 88 | 1021.4 |
| 20260905072930 | 15 | 241 | 9.7 | 16.1 | 0.10 | 0.00 | 0.20 | 86 | 1021.5 |
| 20260905071922 | 15 | 230 | 6.4 | 12.9 | 0.10 | 0.00 | 0.18 | 86 | 1021.8 |
| 20260905070910 | 15 | 237 | 8.0 | 11.3 | 0.10 | 0.00 | 0.18 | 88 | 1021.9 |
| 20260905064831 | 15 | 209 | 1.6 | 4.8 | 0.18 | 0.00 | 0.18 | 87 | 1021.2 |
| 20260905063754 | 15 | 221 | 3.2 | 9.7 | 0.15 | 0.00 | 0.15 | 83 | 1020.8 |
| 20260905060711 | 16 | 203 | 0.0 | 1.6 | 0.08 | 0.00 | 0.08 | 81 | 1020.6 |
| 20260905054631 | 16 | 227 | 4.8 | 9.7 | 0.00 | 0.00 | 0.00 | 72 | 1020.9 |
| 20260905052603 | 17 | 227 | 4.8 | 14.5 | 0.00 | 0.00 | 0.00 | 65 | 1020.7 |
| 20260905044506 | 18 | 211 | 3.2 | 11.3 | 0.00 | 0.00 | 0.00 | 60 | 1019.1 |
| 20260905040347 | 20 | 196 | 1.6 | 11.3 | 0.00 | 0.00 | 0.00 | 56 | 1018.5 |
| 20260905034306 | 20 | 242 | 3.2 | 9.7 | 0.00 | 0.00 | 0.00 | 56 | 1018.2 |
| 20260905032226 | 20 | 200 | 1.6 | 6.4 | 0.00 | 0.00 | 0.00 | 57 | 1018.2 |
| 20260905031221 | 20 | 169 | 3.2 | 14.5 | 0.00 | 0.00 | 0.00 | 57 | 1017.7 |
| 20260905022135 | 22 | 211 | 8.0 | 27.4 | 0.00 | 0.00 | 0.00 | 58 | 1016.1 |
| 20260905020055 | 25 | 243 | 6.4 | 12.9 | 0.00 | 0.00 | 0.00 | 49 | 1014.7 |
| 20260905005931 | 22 | 235 | 4.8 | 6.4 | 0.00 | 0.00 | 0.00 | 57 | 1014.4 |
| 20260905004928 | 23 | 233 | 4.8 | 6.4 | 0.00 | 0.00 | 0.00 | 55 | 1014.4 |
| 20260905001811 | 24 | 232 | 6.4 | 9.7 | 0.00 | 0.00 | 0.00 | 50 | 1014.4 |
| 20260904231659 | 23 | 231 | 3.2 | 6.4 | 0.00 | 0.00 | 0.00 | 50 | 1014.0 |
| 20260904230643 | 23 | 227 | 3.2 | 4.8 | 0.00 | 0.00 | 0.00 | 51 | 1013.9 |
| 20260904223559 | 18 | 195 | 0.0 | 0.0 | 0.00 | 0.00 | 0.00 | 69 | 1013.9 |
| 20260904222523 | 17 | 207 | 0.0 | 3.2 | 0.00 | 0.00 | 0.00 | 71 | 1014.0 |
| 20260904215421 | 17 | 193 | 0.0 | 0.0 | 0.00 | 0.00 | 0.00 | 74 | 1013.7 |
| 20260904214403 | 16 | 202 | 0.0 | 0.0 | 0.00 | 0.00 | 0.00 | 75 | 1013.7 |